Time;durP1;ratioP1;P1;durP2;ratioP2;P2;SDS_P1;SDS_P2;PMS_P1;PMS_P2;Temp;Humidity;BMP_temperature;BMP_pressure;BME280_temperature;BME280_humidity;BME280_pressure;Samples;Min_cycle;Max_cycle;Signal;HPM_P1;HPM_P2
2023/01/02 00:00:10;;;;;;;6.85;2.78;;;13.50;99.90;;;;;;5053493;28;20170;-46
2023/01/02 00:02:36;;;;;;;8.60;2.75;;;13.60;99.90;;;;;;5052967;28;20305;-46
2023/01/02 00:05:01;;;;;;;13.18;3.40;;;13.60;99.90;;;;;;5053075;28;20337;-46
2023/01/02 00:07:27;;;;;;;7.22;3.00;;;13.50;99.90;;;;;;5053030;28;20199;-46
2023/01/02 00:09:52;;;;;;;8.85;3.17;;;13.60;99.90;;;;;;5053435;28;20170;-46
2023/01/02 00:12:18;;;;;;;8.25;2.83;;;13.60;99.90;;;;;;5052968;28;20171;-46
2023/01/02 00:14:43;;;;;;;14.52;3.10;;;13.60;99.90;;;;;;5052873;28;20166;-46
2023/01/02 00:17:09;;;;;;;9.85;3.45;;;13.50;99.90;;;;;;5052865;28;20696;-46
2023/01/02 00:19:34;;;;;;;9.98;3.05;;;13.50;99.90;;;;;;5052826;28;20631;-46
2023/01/02 00:22:00;;;;;;;11.40;3.38;;;13.60;99.90;;;;;;5052785;28;20663;-46
2023/01/02 00:24:26;;;;;;;6.93;2.92;;;13.60;99.90;;;;;;5053054;28;20159;-46
2023/01/02 00:26:51;;;;;;;5.68;3.05;;;13.50;99.90;;;;;;5052996;28;20212;-46
2023/01/02 00:29:17;;;;;;;11.63;2.80;;;13.60;99.90;;;;;;5052631;28;20174;-46
2023/01/02 00:31:42;;;;;;;8.68;3.10;;;13.50;99.90;;;;;;5052624;28;20224;-46
2023/01/02 00:34:08;;;;;;;9.10;3.40;;;13.60;99.90;;;;;;5052508;28;20198;-46
2023/01/02 00:36:33;;;;;;;8.93;2.80;;;13.60;99.90;;;;;;5052760;28;20167;-46
2023/01/02 00:38:59;;;;;;;11.70;3.28;;;13.60;99.90;;;;;;5052119;28;20194;-45
2023/01/02 00:41:24;;;;;;;11.85;3.08;;;13.60;99.90;;;;;;5052782;28;20167;-46
2023/01/02 00:43:50;;;;;;;5.28;2.45;;;13.50;99.90;;;;;;5052452;28;20163;-45
2023/01/02 00:46:17;;;;;;;8.32;2.70;;;13.50;99.90;;;;;;5052093;28;20205;-45
2023/01/02 00:48:43;;;;;;;7.88;3.40;;;13.50;99.90;;;;;;5052186;28;20182;-46
2023/01/02 00:51:09;;;;;;;6.30;2.90;;;13.50;99.90;;;;;;5052256;28;20174;-46
2023/01/02 00:53:34;;;;;;;7.65;3.10;;;13.50;99.90;;;;;;5052206;28;20521;-46
2023/01/02 00:56:00;;;;;;;7.45;2.55;;;13.50;99.90;;;;;;5052101;28;20170;-45
2023/01/02 00:58:26;;;;;;;5.72;2.60;;;13.60;99.90;;;;;;5052520;28;20660;-45
2023/01/02 01:00:51;;;;;;;3.03;2.40;;;13.60;99.90;;;;;;5052475;28;20709;-45
2023/01/02 01:03:17;;;;;;;10.50;2.78;;;13.60;99.90;;;;;;5051922;28;20229;-45
2023/01/02 01:05:43;;;;;;;6.55;3.30;;;13.60;99.90;;;;;;5051918;28;20692;-46
2023/01/02 01:08:08;;;;;;;12.27;3.42;;;13.60;99.90;;;;;;5051947;28;20570;-45
2023/01/02 01:10:36;;;;;;;9.15;3.17;;;13.70;99.90;;;;;;5052227;28;20178;-45
2023/01/02 01:13:02;;;;;;;8.50;2.78;;;13.60;99.90;;;;;;5051839;28;20178;-46
2023/01/02 01:15:28;;;;;;;5.80;2.33;;;13.70;99.90;;;;;;5051715;28;20167;-45
2023/01/02 01:17:53;;;;;;;6.68;2.63;;;13.60;99.90;;;;;;5052331;28;20171;-46
2023/01/02 01:20:19;;;;;;;8.65;3.00;;;13.70;99.90;;;;;;5051972;28;20167;-46
2023/01/02 01:22:44;;;;;;;7.65;2.78;;;13.70;99.90;;;;;;5051866;28;20182;-46
2023/01/02 01:25:10;;;;;;;10.40;2.90;;;13.80;99.90;;;;;;5051710;28;20230;-46
2023/01/02 01:27:36;;;;;;;7.05;2.88;;;13.80;99.90;;;;;;5051763;28;20246;-46
2023/01/02 01:30:02;;;;;;;7.65;3.03;;;13.70;99.90;;;;;;5051951;28;20166;-46
2023/01/02 01:32:28;;;;;;;6.95;3.40;;;13.70;99.90;;;;;;5051930;28;20167;-46
2023/01/02 01:34:54;;;;;;;9.23;3.00;;;13.80;99.90;;;;;;5052280;28;20265;-46
2023/01/02 01:37:19;;;;;;;8.40;2.25;;;13.80;99.90;;;;;;5051628;28;20202;-46
2023/01/02 01:39:45;;;;;;;8.02;3.10;;;13.70;99.90;;;;;;5051592;28;20202;-46
2023/01/02 01:42:14;;;;;;;7.03;3.10;;;13.70;99.90;;;;;;5051547;28;20224;-46
2023/01/02 01:45:02;;;;;;;9.13;2.63;;;13.70;99.90;;;;;;5050270;28;20171;-45
2023/01/02 01:47:39;;;;;;;5.57;2.63;;;13.70;99.90;;;;;;5051734;28;20220;-46
2023/01/02 01:50:31;;;;;;;10.45;3.47;;;13.60;99.90;;;;;;5053283;28;20168;-46
2023/01/02 01:53:15;;;;;;;7.43;2.90;;;13.60;99.90;;;;;;5055669;28;20173;-46
2023/01/02 01:55:49;;;;;;;8.48;3.42;;;13.60;99.90;;;;;;5055568;28;20194;-45
2023/01/02 01:58:21;;;;;;;10.00;3.28;;;13.60;99.90;;;;;;5055718;28;20504;-45
2023/01/02 02:00:47;;;;;;;10.40;3.15;;;13.50;99.90;;;;;;5055686;28;20174;-45
2023/01/02 02:03:17;;;;;;;14.95;3.78;;;13.60;99.90;;;;;;5055238;28;20222;-45
2023/01/02 02:05:43;;;;;;;5.72;2.72;;;13.60;99.90;;;;;;5055230;28;20205;-45
2023/01/02 02:08:17;;;;;;;15.35;3.63;;;13.50;99.90;;;;;;5055345;28;20241;-46
2023/01/02 02:10:43;;;;;;;8.63;2.85;;;13.50;99.90;;;;;;5055177;28;20171;-45
2023/01/02 02:13:09;;;;;;;5.72;2.85;;;13.50;99.90;;;;;;5055461;28;20257;-45
2023/01/02 02:16:06;;;;;;;10.52;3.50;;;13.50;99.90;;;;;;5055147;28;20261;-46
2023/01/02 02:18:57;;;;;;;6.90;3.17;;;13.50;99.90;;;;;;5055112;28;20166;-45
2023/01/02 02:21:55;;;;;;;13.02;4.57;;;13.50;99.90;;;;;;5055534;28;20242;-45
2023/01/02 02:24:45;;;;;;;6.60;3.20;;;13.50;99.90;;;;;;5055305;28;20630;-46
2023/01/02 02:27:32;;;;;;;10.40;2.90;;;13.50;99.90;;;;;;5054976;28;20179;-46
2023/01/02 02:30:19;;;;;;;5.57;2.97;;;13.50;99.90;;;;;;5055212;28;20223;-47
2023/01/02 02:33:11;;;;;;;13.82;5.13;;;13.50;99.90;;;;;;5054943;28;20219;-45
2023/01/02 02:35:59;;;;;;;14.93;4.60;;;13.70;99.90;;;;;;5054833;28;20170;-46
2023/01/02 02:38:51;;;;;;;15.82;4.68;;;13.70;99.90;;;;;;5055178;28;20163;-46
2023/01/02 02:41:34;;;;;;;12.25;4.35;;;13.70;99.90;;;;;;5054644;28;20175;-46
2023/01/02 02:44:00;;;;;;;13.40;3.55;;;13.50;99.90;;;;;;5054629;28;20622;-46
2023/01/02 02:46:49;;;;;;;8.10;3.10;;;13.50;99.90;;;;;;5054834;28;20221;-46
2023/01/02 02:49:45;;;;;;;10.82;3.20;;;13.40;99.90;;;;;;5054669;28;20918;-46
2023/01/02 02:52:34;;;;;;;8.45;2.55;;;13.30;99.90;;;;;;5054745;28;20522;-46
2023/01/02 02:55:16;;;;;;;8.30;3.35;;;13.30;99.90;;;;;;5054530;28;20163;-46
2023/01/02 02:57:44;;;;;;;6.28;3.03;;;13.30;99.90;;;;;;5054406;28;20170;-46
2023/01/02 03:00:14;;;;;;;12.10;3.20;;;13.20;99.90;;;;;;5054221;28;20159;-46
2023/01/02 03:02:39;;;;;;;5.55;2.97;;;13.20;99.90;;;;;;5054174;28;20754;-45
2023/01/02 03:05:10;;;;;;;6.75;2.90;;;13.20;99.90;;;;;;5054238;28;20206;-46
2023/01/02 03:07:48;;;;;;;6.93;2.42;;;13.20;99.90;;;;;;5054201;28;20173;-46
2023/01/02 03:10:28;;;;;;;11.07;3.80;;;13.30;99.90;;;;;;5054253;28;20661;-46
2023/01/02 03:13:50;;;;;;;7.45;2.80;;;13.20;99.90;;;;;;5054495;28;20641;-45
2023/01/02 03:16:36;;;;;;;9.20;2.83;;;13.30;99.90;;;;;;5032078;28;20175;-46
2023/01/02 03:19:13;;;;;;;10.32;2.55;;;13.30;99.90;;;;;;5032073;28;20198;-46
2023/01/02 03:21:49;;;;;;;6.47;2.63;;;13.30;99.90;;;;;;5049836;28;20184;-47
2023/01/02 03:24:18;;;;;;;11.75;3.75;;;13.30;99.90;;;;;;5054155;28;20167;-45
2023/01/02 03:26:48;;;;;;;9.20;3.40;;;13.20;99.90;;;;;;5053732;28;20268;-46
2023/01/02 03:29:21;;;;;;;5.07;2.95;;;13.20;99.90;;;;;;5053807;28;20209;-46
2023/01/02 03:31:51;;;;;;;5.15;2.28;;;13.20;99.90;;;;;;5053737;28;20265;-46
2023/01/02 03:34:22;;;;;;;13.98;4.57;;;13.20;99.90;;;;;;5053677;28;20665;-46
2023/01/02 03:36:53;;;;;;;10.32;3.40;;;13.20;99.90;;;;;;5053641;28;20171;-47
2023/01/02 03:39:21;;;;;;;7.38;3.03;;;13.20;99.90;;;;;;5053589;28;20159;-46
2023/01/02 03:42:03;;;;;;;6.68;2.53;;;13.20;99.90;;;;;;5053505;28;20182;-46
2023/01/02 03:44:44;;;;;;;7.60;2.80;;;13.20;99.90;;;;;;5053631;28;20181;-46
2023/01/02 03:47:34;;;;;;;7.95;2.80;;;13.10;99.90;;;;;;5053410;28;20217;-46
2023/01/02 03:50:05;;;;;;;8.40;2.78;;;13.10;99.90;;;;;;5053203;28;20167;-47
2023/01/02 03:52:31;;;;;;;13.63;3.65;;;13.20;99.90;;;;;;5053409;28;20169;-46
2023/01/02 03:54:59;;;;;;;7.88;2.80;;;13.10;99.90;;;;;;5053296;28;20501;-46
2023/01/02 03:57:38;;;;;;;7.25;3.40;;;13.10;99.90;;;;;;5053622;28;20166;-47
2023/01/02 04:00:09;;;;;;;14.80;4.25;;;13.20;99.90;;;;;;5053239;28;20241;-46
2023/01/02 04:02:51;;;;;;;12.10;3.55;;;13.20;99.90;;;;;;5052956;28;20210;-47
2023/01/02 04:05:19;;;;;;;16.98;4.55;;;13.20;99.90;;;;;;5053023;28;20198;-47
2023/01/02 04:07:59;;;;;;;15.30;4.25;;;13.20;99.90;;;;;;5053053;28;20170;-47
2023/01/02 04:10:27;;;;;;;15.10;4.38;;;13.20;99.90;;;;;;5053395;28;20233;-47
2023/01/02 04:13:00;;;;;;;11.27;3.35;;;13.20;99.90;;;;;;5052974;28;20178;-47
2023/01/02 04:15:28;;;;;;;8.43;3.10;;;13.20;99.90;;;;;;5052886;28;20205;-46
2023/01/02 04:17:59;;;;;;;9.43;2.85;;;13.20;99.90;;;;;;5053265;28;20236;-47
2023/01/02 04:20:48;;;;;;;7.93;3.55;;;13.30;99.90;;;;;;5053115;28;20173;-47
2023/01/02 04:23:23;;;;;;;9.57;3.35;;;13.70;99.90;;;;;;5052742;28;20165;-47
2023/01/02 04:25:51;;;;;;;9.68;3.05;;;13.70;99.90;;;;;;5052665;28;20244;-47
2023/01/02 04:28:23;;;;;;;9.02;3.10;;;13.80;99.90;;;;;;5052799;28;20174;-47
2023/01/02 04:30:54;;;;;;;10.45;3.67;;;13.80;99.90;;;;;;5052621;28;20221;-46
2023/01/02 04:33:21;;;;;;;11.00;3.20;;;13.70;99.90;;;;;;5052565;28;20166;-46
2023/01/02 04:35:47;;;;;;;14.05;3.30;;;13.80;99.90;;;;;;5052727;28;20170;-47
2023/01/02 04:38:12;;;;;;;6.65;2.90;;;13.80;99.90;;;;;;5052486;28;20657;-46
2023/01/02 04:40:38;;;;;;;10.30;3.33;;;13.80;99.90;;;;;;5052483;28;20618;-46
2023/01/02 04:43:07;;;;;;;9.70;3.92;;;13.80;99.90;;;;;;5052336;28;20167;-46
2023/01/02 04:45:32;;;;;;;9.10;3.60;;;13.80;99.90;;;;;;5052311;28;20221;-46
2023/01/02 04:47:58;;;;;;;12.10;4.05;;;13.80;99.90;;;;;;5052337;28;20619;-46
2023/01/02 04:50:24;;;;;;;7.28;3.00;;;13.80;99.90;;;;;;5052566;28;20163;-47
2023/01/02 04:52:49;;;;;;;8.85;3.15;;;13.80;99.90;;;;;;5052312;28;20171;-46
2023/01/02 04:55:15;;;;;;;13.15;3.75;;;13.80;99.90;;;;;;5052134;28;20273;-47
2023/01/02 04:57:40;;;;;;;14.70;3.80;;;13.80;99.90;;;;;;5052176;28;20177;-46
2023/01/02 05:00:07;;;;;;;13.55;3.75;;;13.80;99.90;;;;;;5052106;28;20177;-46
2023/01/02 05:02:37;;;;;;;12.63;4.57;;;13.80;99.90;;;;;;5051994;28;20229;-46
2023/01/02 05:05:05;;;;;;;7.53;3.25;;;13.80;99.90;;;;;;5052141;28;20199;-46
2023/01/02 05:07:32;;;;;;;10.70;4.15;;;13.80;99.90;;;;;;5051910;28;20171;-46
2023/01/02 05:09:58;;;;;;;11.20;3.85;;;13.80;99.90;;;;;;5051962;28;20688;-46
2023/01/02 05:12:24;;;;;;;12.95;3.45;;;13.80;99.90;;;;;;5052288;28;20175;-46
2023/01/02 05:14:49;;;;;;;6.38;2.35;;;13.80;99.90;;;;;;5051796;28;20194;-46
2023/01/02 05:17:15;;;;;;;6.05;2.90;;;13.80;99.90;;;;;;5051994;28;20167;-46
2023/01/02 05:19:40;;;;;;;8.70;2.58;;;13.90;99.90;;;;;;5051727;28;20174;-46
2023/01/02 05:24:50;;;;;;;5.72;2.53;;;13.70;99.90;;;;;;5050871;28;20261;-46
2023/01/02 05:27:15;;;;;;;5.88;2.80;;;13.80;99.90;;;;;;5051699;28;20253;-46
2023/01/02 05:29:41;;;;;;;5.60;2.28;;;13.80;99.90;;;;;;5051741;28;20167;-46
2023/01/02 05:32:06;;;;;;;4.85;2.20;;;13.70;99.90;;;;;;5051636;28;20587;-46
2023/01/02 05:34:32;;;;;;;6.20;2.78;;;13.70;99.90;;;;;;5051591;28;20171;-46
2023/01/02 05:36:57;;;;;;;7.53;2.42;;;13.70;99.90;;;;;;5051564;28;20177;-46
2023/01/02 05:39:23;;;;;;;6.25;2.33;;;13.60;99.90;;;;;;5052019;28;20170;-46
2023/01/02 05:41:49;;;;;;;6.32;1.90;;;13.60;99.90;;;;;;5051729;28;20170;-46
2023/01/02 05:44:14;;;;;;;5.25;2.50;;;13.70;99.90;;;;;;5051456;28;20695;-45
2023/01/02 05:46:40;;;;;;;8.02;2.40;;;13.60;99.90;;;;;;5051564;28;20736;-46
2023/01/02 05:49:06;;;;;;;4.25;1.88;;;13.60;99.90;;;;;;5051684;28;20159;-46
2023/01/02 05:51:33;;;;;;;2.60;1.60;;;13.50;99.90;;;;;;5051527;28;20179;-46
2023/01/02 05:53:59;;;;;;;6.28;1.70;;;13.50;99.90;;;;;;5051513;28;20630;-46
2023/01/02 05:56:26;;;;;;;4.63;1.83;;;13.50;99.90;;;;;;5051481;28;20654;-46
2023/01/02 05:58:52;;;;;;;7.10;2.00;;;13.50;99.90;;;;;;5051719;28;20635;-46
2023/01/02 06:01:26;;;;;;;4.63;1.90;;;13.50;99.90;;;;;;5051145;28;20171;-46
2023/01/02 06:03:54;;;;;;;3.28;2.67;;;13.50;99.90;;;;;;5051566;28;20225;-46
2023/01/02 06:06:23;;;;;;;4.28;2.00;;;13.50;99.90;;;;;;5051852;28;20641;-46
2023/01/02 06:08:49;;;;;;;10.07;2.20;;;13.50;99.90;;;;;;5051231;28;20159;-46
2023/01/02 06:11:15;;;;;;;8.75;2.45;;;13.50;99.90;;;;;;5051221;28;20175;-46
2023/01/02 06:13:41;;;;;;;7.78;2.00;;;13.40;99.90;;;;;;5051211;28;20166;-46
2023/01/02 06:16:08;;;;;;;6.85;2.17;;;13.40;99.90;;;;;;5051346;28;20170;-46
2023/01/02 06:18:37;;;;;;;4.95;2.22;;;13.40;99.90;;;;;;5051048;28;20193;-47
2023/01/02 06:21:05;;;;;;;4.85;2.15;;;13.50;99.90;;;;;;5051213;28;20221;-47
2023/01/02 06:23:31;;;;;;;6.03;2.00;;;13.40;99.90;;;;;;5051213;28;20194;-46
2023/01/02 06:26:05;;;;;;;6.07;1.67;;;13.40;99.90;;;;;;5051021;28;20210;-47
2023/01/02 06:28:31;;;;;;;3.65;1.90;;;13.40;99.90;;;;;;5051222;28;20175;-47
2023/01/02 06:31:01;;;;;;;4.78;1.95;;;13.40;99.90;;;;;;5051117;28;20212;-47
2023/01/02 06:33:27;;;;;;;3.80;1.83;;;13.40;99.90;;;;;;5051086;28;20201;-47
2023/01/02 06:36:01;;;;;;;5.93;1.77;;;13.40;99.90;;;;;;5052826;28;20163;-47
2023/01/02 06:38:27;;;;;;;5.28;2.15;;;13.40;99.90;;;;;;5055037;28;20189;-47
2023/01/02 06:40:58;;;;;;;8.05;2.33;;;13.40;99.90;;;;;;5055117;28;20626;-46
2023/01/02 06:43:24;;;;;;;4.45;1.55;;;13.40;99.90;;;;;;5055109;28;20566;-46
2023/01/02 06:45:50;;;;;;;5.25;1.85;;;13.40;99.90;;;;;;5055049;28;20202;-46
2023/01/02 06:48:16;;;;;;;5.80;2.17;;;13.40;99.90;;;;;;5054413;28;20167;-46
2023/01/02 06:50:43;;;;;;;3.53;1.70;;;13.40;99.90;;;;;;5054604;28;20548;-46
2023/01/02 06:53:08;;;;;;;4.88;1.88;;;13.40;99.90;;;;;;5054483;28;20188;-46
2023/01/02 06:55:34;;;;;;;5.18;1.95;;;13.30;99.90;;;;;;5054364;28;20182;-46
2023/01/02 06:57:59;;;;;;;3.97;1.73;;;13.30;99.90;;;;;;5054336;28;20174;-46
2023/01/02 07:00:25;;;;;;;5.93;2.42;;;13.30;99.90;;;;;;5054344;28;20167;-46
2023/01/02 07:02:51;;;;;;;4.85;2.10;;;13.30;99.90;;;;;;5054502;28;20273;-46
2023/01/02 07:05:16;;;;;;;4.80;2.33;;;13.30;99.90;;;;;;5054184;28;20198;-46
2023/01/02 07:07:42;;;;;;;6.10;2.35;;;13.20;99.90;;;;;;5054243;28;20179;-47
2023/01/02 07:10:08;;;;;;;7.45;2.08;;;13.20;99.90;;;;;;5054408;28;20171;-45
2023/01/02 07:12:35;;;;;;;4.18;1.77;;;13.20;99.90;;;;;;5054126;28;20507;-47
2023/01/02 07:15:01;;;;;;;5.45;2.10;;;13.10;99.90;;;;;;5054318;28;20167;-47
2023/01/02 07:17:27;;;;;;;10.45;2.72;;;13.10;99.90;;;;;;5054275;28;20189;-46
2023/01/02 07:19:52;;;;;;;9.45;3.17;;;13.10;99.90;;;;;;5052032;28;20531;-49
2023/01/02 07:22:19;;;;;;;5.65;2.67;;;13.00;99.90;;;;;;5052156;28;20639;-47
2023/01/02 07:24:44;;;;;;;5.75;2.25;;;13.00;99.90;;;;;;5052034;28;20689;-49
2023/01/02 07:27:10;;;;;;;8.80;3.03;;;13.00;99.90;;;;;;5052264;28;20241;-48
2023/01/02 07:29:35;;;;;;;8.73;3.10;;;13.00;99.90;;;;;;5052077;28;20642;-47
2023/01/02 07:32:01;;;;;;;10.63;3.10;;;13.00;99.90;;;;;;5051863;28;20697;-48
2023/01/02 07:34:29;;;;;;;9.90;3.28;;;12.90;99.90;;;;;;5051875;28;20250;-46
2023/01/02 07:36:54;;;;;;;5.85;3.28;;;12.90;99.90;;;;;;5051705;28;20166;-47
2023/01/02 07:39:21;;;;;;;10.40;3.35;;;12.80;99.90;;;;;;5052095;28;20269;-47
2023/01/02 07:41:47;;;;;;;9.48;3.72;;;12.80;99.90;;;;;;5051715;28;20623;-51
2023/01/02 07:44:12;;;;;;;11.25;3.00;;;12.80;99.90;;;;;;5051906;28;20174;-46
2023/01/02 07:46:38;;;;;;;5.00;2.70;;;12.70;99.90;;;;;;5051064;28;20281;-47
2023/01/02 07:49:03;;;;;;;13.25;3.70;;;12.70;99.90;;;;;;5051053;28;20242;-47
2023/01/02 07:51:30;;;;;;;10.90;3.70;;;12.70;99.90;;;;;;5050801;28;20414;-47
2023/01/02 07:53:56;;;;;;;6.38;2.90;;;12.70;99.90;;;;;;5051402;28;20187;-47
2023/01/02 07:56:22;;;;;;;5.38;2.58;;;12.60;99.90;;;;;;5051810;28;20651;-47
2023/01/02 07:58:47;;;;;;;10.75;3.55;;;12.60;99.90;;;;;;5051339;28;20245;-47
2023/01/02 08:01:13;;;;;;;9.88;3.85;;;12.60;99.90;;;;;;5051390;28;20654;-47
2023/01/02 08:03:38;;;;;;;5.07;2.55;;;12.50;99.90;;;;;;5051133;28;20230;-47
2023/01/02 08:06:16;;;;;;;7.07;3.05;;;12.50;99.90;;;;;;5051106;28;20297;-47
2023/01/02 08:08:42;;;;;;;3.92;2.08;;;12.50;99.90;;;;;;5051500;28;20173;-47
2023/01/02 08:11:10;;;;;;;5.18;1.98;;;12.40;99.90;;;;;;5051072;28;20237;-46
2023/01/02 08:13:36;;;;;;;3.75;1.80;;;12.40;99.90;;;;;;5050987;28;20173;-47
2023/01/02 08:16:10;;;;;;;6.60;2.50;;;12.40;99.90;;;;;;5051257;28;20334;-46
2023/01/02 08:18:36;;;;;;;4.00;1.60;;;12.40;99.90;;;;;;5050941;28;20163;-47
2023/01/02 08:21:02;;;;;;;6.22;2.65;;;12.40;99.90;;;;;;5051102;28;20722;-47
2023/01/02 08:23:28;;;;;;;4.38;2.00;;;12.30;99.90;;;;;;5051045;28;20178;-47
2023/01/02 08:26:02;;;;;;;6.57;1.92;;;12.30;99.90;;;;;;5050849;28;20260;-46
2023/01/02 08:28:28;;;;;;;3.85;1.95;;;12.30;99.90;;;;;;5050804;28;20213;-47
2023/01/02 08:30:54;;;;;;;4.10;2.03;;;12.20;99.90;;;;;;5050714;28;20170;-47
2023/01/02 08:33:20;;;;;;;4.95;2.15;;;12.30;99.90;;;;;;5049936;28;20173;-47
2023/01/02 08:35:46;;;;;;;5.53;2.58;;;12.20;99.90;;;;;;5050844;28;20167;-47
2023/01/02 08:38:11;;;;;;;6.18;2.47;;;12.20;99.90;;;;;;5050823;28;20179;-47
2023/01/02 08:40:37;;;;;;;5.20;2.30;;;12.20;99.90;;;;;;5050497;28;20167;-47
2023/01/02 08:43:05;;;;;;;4.40;2.20;;;12.20;99.90;;;;;;5050527;28;20223;-47
2023/01/02 08:45:30;;;;;;;10.77;2.28;;;12.20;99.90;;;;;;5050823;28;20206;-47
2023/01/02 08:47:56;;;;;;;4.85;2.47;;;12.20;99.90;;;;;;5050534;28;20673;-47
2023/01/02 08:50:21;;;;;;;4.93;2.25;;;12.20;99.90;;;;;;5051026;28;20715;-46
2023/01/02 08:52:47;;;;;;;6.60;2.72;;;12.20;99.90;;;;;;5050541;28;20179;-46
2023/01/02 08:55:12;;;;;;;3.65;2.15;;;12.20;99.90;;;;;;5050273;28;20163;-47
2023/01/02 08:57:38;;;;;;;6.82;2.17;;;12.20;99.90;;;;;;5050594;28;20568;-47
2023/01/02 09:00:04;;;;;;;6.45;2.53;;;12.20;99.90;;;;;;5049995;28;20528;-48
2023/01/02 09:02:30;;;;;;;3.97;2.08;;;12.30;99.90;;;;;;5050177;28;20230;-48
2023/01/02 09:04:57;;;;;;;5.82;2.00;;;12.30;99.90;;;;;;5050705;28;20189;-47
2023/01/02 09:07:23;;;;;;;3.03;2.08;;;12.30;99.90;;;;;;5050722;28;20166;-47
2023/01/02 09:09:49;;;;;;;2.58;1.95;;;12.20;99.90;;;;;;5050694;28;20173;-49
2023/01/02 09:12:15;;;;;;;2.78;1.55;;;12.20;99.90;;;;;;5050172;28;20166;-49
2023/01/02 09:14:40;;;;;;;2.00;1.83;;;12.30;99.90;;;;;;5050096;28;20167;-49
2023/01/02 09:17:06;;;;;;;3.22;1.50;;;12.30;99.90;;;;;;5050129;28;20190;-49
2023/01/02 09:19:31;;;;;;;2.50;1.30;;;12.20;99.90;;;;;;5048944;28;20647;-48
2023/01/02 09:21:57;;;;;;;3.15;1.20;;;12.20;99.90;;;;;;5049814;28;20177;-48
2023/01/02 09:24:22;;;;;;;2.95;1.10;;;12.20;99.90;;;;;;5050598;28;20170;-49
2023/01/02 09:26:48;;;;;;;1.85;1.38;;;12.10;99.90;;;;;;5049714;28;20700;-48
2023/01/02 09:29:14;;;;;;;1.48;1.30;;;12.20;99.90;;;;;;5049851;28;20162;-49
2023/01/02 09:31:40;;;;;;;3.63;1.33;;;12.20;99.90;;;;;;5050016;28;20170;-48
2023/01/02 09:34:06;;;;;;;3.42;1.25;;;12.10;99.90;;;;;;5049791;28;20198;-49
2023/01/02 09:36:31;;;;;;;2.35;1.02;;;12.00;99.90;;;;;;5049852;28;20202;-48
2023/01/02 09:38:59;;;;;;;1.58;1.10;;;11.80;99.90;;;;;;5049700;28;20429;-48
2023/01/02 09:41:48;;;;;;;1.15;1.05;;;11.80;99.90;;;;;;5049608;28;20170;-47
2023/01/02 09:44:23;;;;;;;1.30;1.20;;;11.70;99.90;;;;;;5049732;28;20576;-48
2023/01/02 09:47:02;;;;;;;1.70;1.40;;;11.70;99.90;;;;;;5049814;28;20198;-49
2023/01/02 09:49:33;;;;;;;1.23;1.15;;;11.70;99.90;;;;;;5049912;28;20170;-48
2023/01/02 09:51:59;;;;;;;1.35;1.25;;;11.70;99.90;;;;;;5049571;28;20194;-48
2023/01/02 09:54:30;;;;;;;1.73;1.50;;;11.70;99.90;;;;;;5049489;28;20690;-48
2023/01/02 09:57:13;;;;;;;2.00;1.73;;;11.70;99.90;;;;;;5049519;28;20177;-51
2023/01/02 09:59:48;;;;;;;1.20;1.10;;;11.60;99.90;;;;;;5049574;28;20158;-48
2023/01/02 10:02:39;;;;;;;2.53;1.60;;;11.60;99.90;;;;;;5049363;28;20275;-48
2023/01/02 10:05:27;;;;;;;2.47;1.50;;;11.60;99.90;;;;;;5049705;28;20725;-47
2023/01/02 10:08:25;;;;;;;1.80;1.55;;;11.70;99.90;;;;;;5049419;28;20507;-47
2023/01/02 10:11:01;;;;;;;2.70;1.60;;;11.60;99.90;;;;;;5051114;28;20225;-47
2023/01/02 10:13:40;;;;;;;2.80;1.58;;;11.60;99.90;;;;;;5053731;28;20175;-46
2023/01/02 10:16:11;;;;;;;3.25;1.70;;;11.70;99.90;;;;;;5053358;28;20634;-48
2023/01/02 10:18:39;;;;;;;2.95;1.50;;;11.70;99.90;;;;;;5053350;28;20185;-48
2023/01/02 10:21:14;;;;;;;2.17;1.77;;;11.70;99.90;;;;;;5053264;28;20282;-49
2023/01/02 10:23:55;;;;;;;3.28;2.00;;;11.70;99.90;;;;;;5053192;28;20236;-47
2023/01/02 10:26:24;;;;;;;1.90;1.70;;;11.70;99.90;;;;;;5053804;28;20206;-48
2023/01/02 10:29:13;;;;;;;2.92;2.10;;;11.70;99.90;;;;;;5053521;28;20194;-47
2023/01/02 10:31:45;;;;;;;2.83;2.60;;;11.80;99.90;;;;;;5053199;28;20253;-46
2023/01/02 10:34:18;;;;;;;2.80;1.90;;;11.70;99.90;;;;;;5052979;28;20556;-46
2023/01/02 10:36:45;;;;;;;2.60;2.20;;;11.80;99.90;;;;;;5053021;28;20185;-48
2023/01/02 10:39:24;;;;;;;2.30;2.00;;;11.80;99.90;;;;;;5053185;28;20525;-48
2023/01/02 10:41:57;;;;;;;2.78;2.22;;;11.80;99.90;;;;;;5053317;28;20174;-48
2023/01/02 10:44:26;;;;;;;3.00;2.03;;;13.30;99.90;;;;;;5053518;28;20213;-48
2023/01/02 10:46:54;;;;;;;3.60;2.65;;;11.70;99.90;;;;;;5053046;28;20206;-48
2023/01/02 10:49:20;;;;;;;3.63;2.55;;;11.70;99.90;;;;;;5053026;28;20159;-48
2023/01/02 10:52:00;;;;;;;5.18;2.60;;;11.70;99.90;;;;;;5052770;28;20167;-48
2023/01/02 10:54:25;;;;;;;3.38;2.70;;;11.70;99.90;;;;;;5052710;28;20170;-48
2023/01/02 10:56:53;;;;;;;4.45;2.83;;;11.80;99.90;;;;;;5052875;28;20281;-48
2023/01/02 10:59:21;;;;;;;4.40;3.42;;;11.70;99.90;;;;;;5053240;28;20182;-48
2023/01/02 11:01:58;;;;;;;5.75;3.30;;;11.70;99.90;;;;;;5052121;28;20166;-46
2023/01/02 11:04:26;;;;;;;3.50;2.83;;;11.70;99.90;;;;;;5052456;28;20261;-46
2023/01/02 11:06:57;;;;;;;4.65;3.70;;;11.80;99.90;;;;;;5052299;28;20202;-47
2023/01/02 11:09:28;;;;;;;4.20;3.75;;;11.90;99.90;;;;;;5052865;28;20211;-47
2023/01/02 11:12:06;;;;;;;4.07;3.55;;;11.80;99.90;;;;;;5052242;28;20250;-47
2023/01/02 11:14:34;;;;;;;4.68;3.67;;;11.90;99.90;;;;;;5052378;28;20170;-47
2023/01/02 11:17:21;;;;;;;4.85;3.78;;;11.90;99.90;;;;;;5052093;28;20201;-46
2023/01/02 11:19:50;;;;;;;3.97;3.45;;;11.90;99.90;;;;;;5052283;28;20538;-49
2023/01/02 11:22:18;;;;;;;3.85;3.10;;;11.80;99.90;;;;;;5052470;28;20541;-50
2023/01/02 11:25:06;;;;;;;4.25;3.22;;;11.80;99.90;;;;;;5051860;28;20253;-50
2023/01/02 11:27:35;;;;;;;3.85;2.95;;;11.80;99.90;;;;;;5052182;28;20186;-47
2023/01/02 11:30:02;;;;;;;3.53;3.05;;;11.80;99.90;;;;;;5051893;28;20170;-47
2023/01/02 11:32:37;;;;;;;3.40;3.00;;;11.80;99.90;;;;;;5052280;28;20181;-46
2023/01/02 11:35:03;;;;;;;2.95;2.70;;;11.80;99.90;;;;;;5052188;28;20181;-47
2023/01/02 11:37:29;;;;;;;4.07;3.00;;;11.80;99.90;;;;;;5051666;28;20197;-47
2023/01/02 11:40:06;;;;;;;4.05;2.47;;;11.90;99.90;;;;;;5051571;28;20198;-47
2023/01/02 11:45:25;;;;;;;2.97;2.40;;;11.90;99.90;;;;;;5051533;28;20580;-46
2023/01/02 11:48:05;;;;;;;2.67;2.30;;;11.90;99.90;;;;;;5052019;28;20179;-47
2023/01/02 11:50:34;;;;;;;3.38;2.80;;;11.90;99.90;;;;;;5051514;28;20241;-48
2023/01/02 11:53:12;;;;;;;3.65;2.83;;;12.00;99.90;;;;;;5051510;28;20202;-48
2023/01/02 11:55:47;;;;;;;3.13;2.70;;;12.10;99.90;;;;;;5051192;28;20174;-47
2023/01/02 11:58:37;;;;;;;4.32;2.80;;;12.10;99.90;;;;;;5051298;28;20171;-48
2023/01/02 12:01:21;;;;;;;2.58;2.38;;;12.10;99.90;;;;;;5047338;28;20646;-48
2023/01/02 12:03:47;;;;;;;3.03;2.53;;;12.00;99.90;;;;;;5051205;28;20213;-46
2023/01/02 12:06:22;;;;;;;2.80;2.40;;;12.10;99.90;;;;;;5051137;28;20218;-46
2023/01/02 12:09:03;;;;;;;2.42;2.20;;;12.00;99.90;;;;;;5051187;28;20178;-46
2023/01/02 12:11:40;;;;;;;3.17;2.70;;;12.10;99.90;;;;;;5051250;28;20175;-46
2023/01/02 12:14:21;;;;;;;2.78;2.05;;;12.10;99.90;;;;;;5051144;28;20158;-47
2023/01/02 12:16:49;;;;;;;2.22;2.00;;;12.10;99.90;;;;;;5051055;28;20189;-48
2023/01/02 12:19:33;;;;;;;3.75;2.47;;;12.10;99.90;;;;;;5049748;28;20171;-46
2023/01/02 12:22:14;;;;;;;3.70;2.40;;;12.10;99.90;;;;;;5050895;28;20166;-47
2023/01/02 12:24:56;;;;;;;2.42;2.22;;;12.10;99.90;;;;;;5050494;28;20179;-51
2023/01/02 12:27:33;;;;;;;2.50;2.30;;;12.10;99.90;;;;;;5051203;28;20206;-49
2023/01/02 12:30:07;;;;;;;2.58;1.70;;;12.00;99.90;;;;;;5050906;28;20167;-50
2023/01/02 12:33:03;;;;;;;2.15;1.60;;;12.00;99.90;;;;;;5050641;28;20202;-48
2023/01/02 12:35:46;;;;;;;4.40;1.83;;;12.00;99.90;;;;;;5050359;28;20639;-50
2023/01/02 12:38:32;;;;;;;1.42;1.33;;;12.00;99.90;;;;;;5050734;28;20269;-46
2023/01/02 12:41:24;;;;;;;2.15;1.40;;;12.10;99.90;;;;;;5050742;28;20269;-47
2023/01/02 12:44:21;;;;;;;2.58;1.70;;;12.10;99.90;;;;;;5050745;28;20186;-47
2023/01/02 12:46:58;;;;;;;1.98;1.83;;;12.10;99.90;;;;;;5045221;28;20210;-47
2023/01/02 12:49:41;;;;;;;1.80;1.70;;;12.00;99.90;;;;;;5050733;28;20167;-43
2023/01/02 12:52:55;;;;;;;2.88;1.92;;;11.90;99.90;;;;;;5050271;28;20166;-44
2023/01/02 12:55:46;;;;;;;4.00;2.50;;;12.00;99.90;;;;;;5045794;28;20206;-46
2023/01/02 12:58:26;;;;;;;4.70;2.72;;;12.00;99.90;;;;;;5050236;28;20162;-45
2023/01/02 13:01:09;;;;;;;3.05;2.50;;;12.00;99.90;;;;;;5050803;28;20170;-44
2023/01/02 13:03:51;;;;;;;2.50;2.30;;;12.00;99.90;;;;;;5049943;28;20603;-46
2023/01/02 13:06:49;;;;;;;3.10;2.65;;;11.90;99.90;;;;;;5049316;28;20604;-48
2023/01/02 13:09:40;;;;;;;2.30;2.10;;;11.90;99.90;;;;;;5050099;28;20181;-47
2023/01/02 13:12:13;;;;;;;3.45;3.15;;;11.80;99.90;;;;;;5049776;28;20240;-45